createdAt,value
2023-05-25T00:00:15.626Z,97430.66
2023-05-25T00:02:47.450Z,97428.94
2023-05-25T00:05:24.409Z,97426.44
2023-05-25T00:08:15.445Z,97422.25
2023-05-25T00:13:10.735Z,97426.06
2023-05-25T00:15:38.879Z,97423.77
2023-05-25T00:18:06.991Z,97426.34
2023-05-25T00:20:35.732Z,97434.89
2023-05-25T00:23:05.285Z,97436.81
2023-05-25T00:25:33.303Z,97436.41
2023-05-25T00:28:03.228Z,97433.69
2023-05-25T00:30:31.543Z,97429.62
2023-05-25T00:33:01.563Z,97427.50
2023-05-25T00:35:29.875Z,97425.98
2023-05-25T00:37:57.245Z,97426.77
2023-05-25T00:40:25.429Z,97427.91
2023-05-25T00:42:53.763Z,97425.64
2023-05-25T00:45:21.732Z,97427.86
2023-05-25T00:47:52.378Z,97425.59
2023-05-25T00:50:25.909Z,97426.22
2023-05-25T00:52:54.493Z,97432.53
2023-05-25T00:57:52.013Z,97424.89
2023-05-25T01:00:20.880Z,97426.89
2023-05-25T01:02:52.844Z,97430.18
2023-05-25T01:05:27.545Z,97424.19
2023-05-25T01:07:59.535Z,97422.05
2023-05-25T01:10:33.628Z,97421.03
2023-05-25T01:13:03.197Z,97419.68
2023-05-25T01:15:32.261Z,97416.19
2023-05-25T01:18:01.446Z,97420.95
2023-05-25T01:20:30.400Z,97419.19
2023-05-25T01:23:12.741Z,97423.17
2023-05-25T01:25:46.246Z,97425.02
2023-05-25T01:28:29.058Z,97418.30
2023-05-25T01:31:00.113Z,97418.64
2023-05-25T01:39:00.412Z,97415.30
2023-05-25T01:41:29.790Z,97421.50
2023-05-25T01:44:00.510Z,97420.72
2023-05-25T01:46:40.248Z,97419.00
2023-05-25T01:49:36.871Z,97420.36
2023-05-25T01:52:26.648Z,97421.34
2023-05-25T01:57:22.260Z,97414.45
2023-05-25T01:59:52.911Z,97419.16
2023-05-25T02:02:34.382Z,97424.00
2023-05-25T02:08:18.266Z,97430.08
2023-05-25T02:10:55.234Z,97426.95
2023-05-25T02:13:24.485Z,97432.00
2023-05-25T02:15:59.820Z,97431.43
2023-05-25T02:20:56.752Z,97436.52
2023-05-25T02:23:29.037Z,97436.15
2023-05-25T02:25:58.526Z,97440.21
2023-05-25T02:28:27.600Z,97443.13
2023-05-25T02:31:00.514Z,97447.64
2023-05-25T02:33:39.327Z,97447.06
2023-05-25T02:42:12.747Z,97454.62
2023-05-25T02:44:48.580Z,97462.02
2023-05-25T02:47:36.616Z,97462.72
2023-05-25T02:50:06.048Z,97466.23
2023-05-25T02:55:52.419Z,97469.16
2023-05-25T02:58:24.091Z,97461.02
2023-05-25T03:00:58.891Z,97462.37
2023-05-25T03:03:32.556Z,97467.80
2023-05-25T03:06:02.834Z,97469.16
2023-05-25T03:08:31.384Z,97467.92
2023-05-25T03:17:07.336Z,97464.72
2023-05-25T03:22:34.899Z,97459.83
2023-05-25T03:25:22.318Z,97465.13
2023-05-25T03:30:57.800Z,97471.73
2023-05-25T03:36:33.452Z,97474.97
2023-05-25T03:41:28.253Z,97485.77
2023-05-25T03:43:56.667Z,97487.77
2023-05-25T03:46:28.452Z,97488.55
2023-05-25T03:51:24.341Z,97485.39
2023-05-25T03:53:52.443Z,97482.03
2023-05-25T03:56:21.045Z,97487.82
2023-05-25T03:58:49.333Z,97483.10
2023-05-25T04:01:20.520Z,97483.10
2023-05-25T04:03:54.716Z,97489.38
2023-05-25T04:06:25.092Z,97490.16
2023-05-25T04:08:55.054Z,97488.68
2023-05-25T04:11:24.838Z,97488.63
2023-05-25T04:13:54.987Z,97492.61
2023-05-25T04:16:28.646Z,97492.61
2023-05-25T04:19:01.912Z,97496.68
2023-05-25T04:21:30.833Z,97496.75
2023-05-25T04:29:19.197Z,97501.50
2023-05-25T04:32:05.830Z,97505.72
2023-05-25T04:34:47.800Z,97504.71
2023-05-25T04:37:18.581Z,97502.52
2023-05-25T04:39:46.637Z,97503.61
2023-05-25T04:42:14.735Z,97505.48
2023-05-25T04:44:44.189Z,97510.81
2023-05-25T04:47:12.230Z,97507.62
2023-05-25T04:49:44.032Z,97504.84
2023-05-25T04:52:26.114Z,97507.17
2023-05-25T04:54:56.325Z,97509.38
2023-05-25T04:57:26.335Z,97508.67
2023-05-25T04:59:55.680Z,97521.33
2023-05-25T05:02:28.099Z,97524.65
2023-05-25T05:04:56.458Z,97521.52
2023-05-25T05:07:24.508Z,97524.20
2023-05-25T05:09:54.580Z,97524.56
2023-05-25T05:12:24.972Z,97526.45
2023-05-25T05:14:55.897Z,97523.91
2023-05-25T05:17:25.841Z,97529.53
2023-05-25T05:23:11.210Z,97537.85
2023-05-25T05:25:41.126Z,97541.12
2023-05-25T05:29:07.450Z,97539.48
2023-05-25T06:13:26.907Z,97540.98
2023-05-25T06:16:02.117Z,97541.22
2023-05-25T06:18:30.482Z,97542.57
2023-05-25T06:20:58.401Z,97539.16
2023-05-25T06:25:55.887Z,97526.59
2023-05-25T06:28:23.851Z,97528.75
2023-05-25T06:30:51.669Z,97530.77
2023-05-25T06:33:19.625Z,97533.19
2023-05-25T06:35:52.174Z,97529.00
2023-05-25T06:38:20.504Z,97533.23
2023-05-25T06:40:49.693Z,97526.50
2023-05-25T07:29:00.065Z,97543.94
2023-05-25T07:31:28.655Z,97542.83
2023-05-25T07:33:57.221Z,97552.41
2023-05-25T07:36:25.687Z,97551.72
2023-05-25T07:38:53.962Z,97560.30
2023-05-25T07:41:22.515Z,97558.42
2023-05-25T07:43:51.986Z,97559.79
2023-05-25T07:46:22.355Z,97559.19
2023-05-25T07:48:52.761Z,97559.52
2023-05-25T07:51:23.043Z,97562.16
2023-05-25T07:53:52.162Z,97563.16
2023-05-25T07:56:23.399Z,97557.69
2023-05-25T07:58:53.596Z,97552.95
2023-05-25T08:01:26.255Z,97557.80
2023-05-25T08:03:58.340Z,97555.19
2023-05-25T08:06:58.321Z,97563.02
2023-05-25T08:09:40.789Z,97553.91
2023-05-25T08:15:48.726Z,97555.43
2023-05-25T08:18:31.342Z,97555.47
2023-05-25T08:21:01.746Z,97557.66
2023-05-25T08:23:39.673Z,97554.25
2023-05-25T08:26:31.049Z,97560.66
2023-05-25T08:28:51.708Z,97557.28
2023-05-25T08:34:45.602Z,97561.58
2023-05-25T08:37:29.460Z,97558.91
2023-05-25T08:40:02.156Z,97561.28
2023-05-25T08:42:44.606Z,97561.28
2023-05-25T08:45:34.850Z,97564.10
2023-05-25T08:48:08.051Z,97559.50
2023-05-25T08:50:38.514Z,97560.27
2023-05-25T08:53:11.496Z,97557.18
2023-05-25T08:56:00.257Z,97560.41
2023-05-25T08:58:34.603Z,97563.41
2023-05-25T09:01:11.832Z,97559.66
2023-05-25T09:07:10.185Z,97567.08
2023-05-25T09:09:53.016Z,97565.47
2023-05-25T09:15:57.413Z,97571.13
2023-05-25T09:28:50.400Z,97560.25
2023-05-25T09:31:24.304Z,97553.45
2023-05-25T09:33:54.371Z,97560.68
2023-05-25T09:36:33.116Z,97558.98
2023-05-25T09:39:01.666Z,97561.19
2023-05-25T09:41:30.004Z,97562.27
2023-05-25T09:44:11.046Z,97561.92
2023-05-25T09:46:38.869Z,97564.88
2023-05-25T09:49:09.916Z,97568.89
2023-05-25T09:51:38.827Z,97574.09
2023-05-25T09:54:14.212Z,97564.45
2023-05-25T09:56:46.039Z,97569.02
2023-05-25T09:59:26.914Z,97570.33
2023-05-25T10:02:08.155Z,97555.70
2023-05-25T10:04:44.969Z,97556.78
2023-05-25T10:07:29.725Z,97548.63
2023-05-25T10:10:33.582Z,97551.31
2023-05-25T10:13:11.097Z,97543.50
2023-05-25T10:15:43.333Z,97543.03
2023-05-25T10:18:27.076Z,97545.63
2023-05-25T10:21:02.471Z,97538.14
2023-05-25T10:23:43.721Z,97535.23
2023-05-25T10:26:21.437Z,97517.60
2023-05-25T10:28:51.999Z,97523.48
2023-05-25T10:31:22.115Z,97510.19
2023-05-25T10:33:54.080Z,97513.23
2023-05-25T10:36:23.700Z,97513.16
2023-05-25T10:38:53.117Z,97519.27
2023-05-25T10:41:23.753Z,97508.48
2023-05-25T10:43:53.224Z,97505.49
2023-05-25T10:46:33.116Z,97508.27
2023-05-25T10:49:01.994Z,97506.41
2023-05-25T10:51:39.682Z,97506.03
2023-05-25T10:54:08.040Z,97499.02
2023-05-25T10:56:39.056Z,97501.23
2023-05-25T10:59:22.862Z,97493.36
2023-05-25T11:01:52.069Z,97487.41
2023-05-25T11:04:22.412Z,97491.23
2023-05-25T11:07:03.612Z,97485.84
2023-05-25T11:09:32.247Z,97486.44
2023-05-25T11:12:03.889Z,97485.95
2023-05-25T11:14:44.774Z,97485.67
2023-05-25T11:17:21.104Z,97479.59
2023-05-25T11:19:54.788Z,97476.40
2023-05-25T11:22:34.694Z,97476.16
2023-05-25T11:25:24.049Z,97473.77
2023-05-25T11:27:53.680Z,97468.84
2023-05-25T11:30:27.018Z,97466.44
2023-05-25T11:33:03.557Z,97461.28
2023-05-25T11:38:40.933Z,97446.68
2023-05-25T11:54:29.748Z,97408.31
2023-05-25T11:57:04.291Z,97411.03
2023-05-25T11:59:33.224Z,97404.37
2023-05-25T12:02:53.107Z,97408.78
2023-05-25T12:06:02.626Z,97407.39
2023-05-25T12:08:36.099Z,97402.74
2023-05-25T12:11:06.238Z,97399.82
2023-05-25T12:30:31.420Z,97388.09
2023-05-25T12:35:58.780Z,97384.73
2023-05-25T12:41:24.862Z,97387.50
2023-05-25T12:44:04.349Z,97380.65
2023-05-25T12:46:40.025Z,97377.83
2023-05-25T12:49:34.204Z,97374.64
2023-05-25T12:52:04.187Z,97368.88
2023-05-25T12:54:43.412Z,97371.75
2023-05-25T13:00:17.886Z,97364.40
2023-05-25T13:02:50.810Z,97373.08
2023-05-25T13:05:25.208Z,97364.14
2023-05-25T13:13:42.625Z,97362.70
2023-05-25T13:16:13.176Z,97365.88
2023-05-25T13:22:13.230Z,97359.78
2023-05-25T13:24:47.536Z,97358.19
2023-05-25T13:27:17.929Z,97348.47
2023-05-25T13:33:21.742Z,97328.62
2023-05-25T13:36:00.928Z,97341.58
2023-05-25T13:38:30.984Z,97342.99
2023-05-25T13:41:02.206Z,97342.14
2023-05-25T13:43:39.456Z,97349.50
2023-05-25T13:46:21.941Z,97350.38
2023-05-25T13:48:44.226Z,97352.73
2023-05-25T13:51:20.866Z,97353.34
2023-05-25T13:53:49.831Z,97357.02
2023-05-25T13:56:28.305Z,97357.66
2023-05-25T13:59:05.004Z,97356.67
2023-05-25T14:01:36.273Z,97355.20
2023-05-25T14:04:31.450Z,97352.98
2023-05-25T14:07:02.606Z,97362.17
2023-05-25T14:09:31.455Z,97368.64
2023-05-25T14:12:11.830Z,97362.68
2023-05-25T14:14:40.968Z,97347.41
2023-05-25T14:17:20.025Z,97350.55
2023-05-25T14:19:49.297Z,97345.11
2023-05-25T14:22:21.146Z,97348.23
2023-05-25T14:24:52.399Z,97338.92
2023-05-25T14:27:22.020Z,97333.50
2023-05-25T14:29:52.010Z,97336.48
2023-05-25T14:32:25.127Z,97304.36
2023-05-25T14:34:56.037Z,97321.64
2023-05-25T14:37:24.533Z,97333.36
2023-05-25T14:39:52.879Z,97332.34
2023-05-25T14:42:21.239Z,97334.48
2023-05-25T14:44:50.939Z,97338.02
2023-05-25T14:47:18.967Z,97331.43
2023-05-25T14:49:47.989Z,97331.20
2023-05-25T14:52:15.856Z,97334.98
2023-05-25T14:54:44.422Z,97333.00
2023-05-25T14:57:12.558Z,97328.33
2023-05-25T14:59:40.745Z,97309.89
2023-05-25T15:02:08.673Z,97324.25
2023-05-25T15:04:38.166Z,97327.52
2023-05-25T15:07:06.254Z,97328.59
2023-05-25T15:09:36.126Z,97328.27
2023-05-25T15:12:07.692Z,97329.62
2023-05-25T15:14:37.497Z,97322.98
2023-05-25T15:17:06.583Z,97328.06
2023-05-25T15:19:34.858Z,97331.66
2023-05-25T15:22:03.299Z,97323.09
2023-05-25T15:24:31.419Z,97325.21
2023-05-25T15:27:06.906Z,97323.06
2023-05-25T15:29:42.274Z,97332.47
2023-05-25T15:32:14.505Z,97323.23
2023-05-25T15:35:14.618Z,97327.84
2023-05-25T15:37:48.458Z,97325.02
2023-05-25T15:40:30.430Z,97324.16
2023-05-25T15:43:02.174Z,97325.77
2023-05-25T15:45:30.981Z,97329.68
2023-05-25T15:47:59.692Z,97329.45
2023-05-25T15:50:35.205Z,97337.55
2023-05-25T15:53:04.526Z,97341.87
2023-05-25T15:58:56.522Z,97340.53
2023-05-25T16:01:24.869Z,97349.09
2023-05-25T16:03:54.999Z,97348.13
2023-05-25T16:06:23.244Z,97352.68
2023-05-25T16:08:51.246Z,97351.09
2023-05-25T16:11:20.381Z,97345.49
2023-05-25T16:52:28.197Z,97351.98
2023-05-25T16:54:58.509Z,97352.58
2023-05-25T17:37:12.735Z,97404.80
2023-05-25T17:39:45.632Z,97407.91
2023-05-25T17:42:13.459Z,97410.22
2023-05-25T17:44:41.955Z,97416.80
2023-05-25T17:47:11.188Z,97425.16
2023-05-25T17:49:39.336Z,97426.69
2023-05-25T17:52:07.264Z,97429.38
2023-05-25T17:54:49.265Z,97431.31
2023-05-25T17:57:18.805Z,97426.05
2023-05-25T17:59:46.914Z,97427.57
2023-05-25T18:02:16.013Z,97426.36
2023-05-25T18:04:44.075Z,97425.37
2023-05-25T18:13:41.543Z,97438.30
2023-05-25T18:16:17.553Z,97437.86
2023-05-25T18:18:52.856Z,97441.73
2023-05-25T18:21:28.931Z,97439.73
2023-05-25T18:30:28.551Z,97447.98
2023-05-25T18:32:56.568Z,97456.48
2023-05-25T18:35:24.732Z,97463.63
2023-05-25T18:37:52.528Z,97472.48
2023-05-25T18:40:22.888Z,97481.17
2023-05-25T18:42:53.674Z,97477.56
2023-05-25T18:45:25.793Z,97479.44
2023-05-25T18:48:00.656Z,97485.20
2023-05-25T18:50:30.378Z,97491.78
2023-05-25T18:52:59.239Z,97497.97
2023-05-25T18:55:27.321Z,97502.79
2023-05-25T18:57:57.840Z,97501.19
2023-05-25T19:00:26.026Z,97510.67
2023-05-25T19:02:54.460Z,97512.39
2023-05-25T19:05:23.982Z,97527.16
2023-05-25T19:07:59.165Z,97527.70
2023-05-25T19:10:24.939Z,97533.88
2023-05-25T19:12:54.981Z,97543.53
2023-05-25T19:15:23.334Z,97544.11
2023-05-25T19:17:51.757Z,97544.50
2023-05-25T19:20:24.789Z,97546.44
2023-05-25T19:23:00.175Z,97550.29
2023-05-25T19:25:31.782Z,97554.37
2023-05-25T19:28:02.031Z,97556.89
2023-05-25T19:30:35.617Z,97555.11
2023-05-25T19:33:07.924Z,97556.85
2023-05-25T19:35:41.564Z,97563.80
2023-05-25T19:38:17.302Z,97562.44
2023-05-25T19:40:45.244Z,97557.58
2023-05-25T19:43:14.851Z,97567.16
2023-05-25T19:45:50.456Z,97564.43
2023-05-25T19:48:24.242Z,97570.25
2023-05-25T19:50:54.190Z,97571.97
2023-05-25T19:53:22.009Z,97573.51
2023-05-25T19:55:50.137Z,97568.57
2023-05-25T19:58:18.022Z,97572.78
2023-05-25T20:00:48.874Z,97576.00
2023-05-25T20:03:20.643Z,97572.68
2023-05-25T20:05:51.854Z,97567.14
2023-05-25T20:08:20.408Z,97573.12
2023-05-25T20:10:50.979Z,97568.59
2023-05-25T20:13:18.934Z,97565.97
2023-05-25T20:15:47.963Z,97563.92
2023-05-25T20:18:20.720Z,97558.95
2023-05-25T20:20:49.077Z,97556.91
2023-05-25T20:23:17.168Z,97564.57
2023-05-25T20:25:45.387Z,97561.73
2023-05-25T20:28:14.152Z,97569.05
2023-05-25T20:30:42.089Z,97564.14
2023-05-25T20:33:13.274Z,97564.45
2023-05-25T20:35:41.644Z,97560.72
2023-05-25T20:38:09.789Z,97568.09
2023-05-25T20:40:37.756Z,97562.45
2023-05-25T20:43:05.782Z,97563.92
2023-05-25T20:45:33.950Z,97563.08
2023-05-25T20:48:05.175Z,97561.66
2023-05-25T20:50:33.251Z,97559.61
2023-05-25T20:53:01.758Z,97563.41
2023-05-25T20:55:30.874Z,97551.84
2023-05-25T20:58:01.412Z,97556.57
2023-05-25T21:00:31.427Z,97557.80
2023-05-25T21:02:59.787Z,97560.72
2023-05-25T21:05:30.259Z,97556.52
2023-05-25T21:07:59.091Z,97554.10
2023-05-25T21:10:27.024Z,97554.95
2023-05-25T21:12:57.816Z,97551.19
2023-05-25T21:15:26.411Z,97552.27
2023-05-25T21:17:54.196Z,97552.97
2023-05-25T21:20:22.333Z,97546.12
2023-05-25T21:22:50.515Z,97559.38
2023-05-25T21:25:22.836Z,97557.74
2023-05-25T21:27:58.683Z,97554.52
2023-05-25T21:30:27.148Z,97559.25
2023-05-25T21:32:55.006Z,97563.34
2023-05-25T21:35:22.924Z,97555.83
2023-05-25T21:37:51.048Z,97558.67
2023-05-25T21:40:19.364Z,97560.31
2023-05-25T21:42:51.313Z,97560.58
2023-05-25T21:45:20.266Z,97567.07
2023-05-25T21:47:48.431Z,97568.47
2023-05-25T21:50:17.555Z,97559.02
2023-05-25T21:52:47.530Z,97574.02
2023-05-25T21:55:15.600Z,97581.62
2023-05-25T21:57:43.372Z,97584.61
2023-05-25T22:00:12.373Z,97595.36
2023-05-25T22:02:41.177Z,97599.67
2023-05-25T22:05:09.268Z,97596.79
2023-05-25T22:07:37.021Z,97580.97
2023-05-25T22:10:05.968Z,97588.19
2023-05-25T22:12:34.017Z,97593.06
2023-05-25T22:15:01.957Z,97601.46
2023-05-25T22:17:29.742Z,97603.05
2023-05-25T22:20:07.553Z,97604.47
2023-05-25T22:22:28.205Z,97608.41
2023-05-25T22:24:59.480Z,97604.48
2023-05-25T22:27:27.400Z,97608.45
2023-05-25T22:29:55.409Z,97600.99
2023-05-25T22:32:23.151Z,97593.67
2023-05-25T22:34:51.023Z,97600.13
2023-05-25T22:37:18.793Z,97605.45
2023-05-25T22:39:46.715Z,97601.09
2023-05-25T22:42:14.636Z,97610.45
2023-05-25T22:44:42.418Z,97603.50
2023-05-25T22:47:10.220Z,97608.81
2023-05-25T22:49:41.228Z,97596.75
2023-05-25T22:52:09.630Z,97610.06
2023-05-25T22:54:37.242Z,97610.95
2023-05-25T22:57:08.155Z,97614.70
2023-05-25T22:59:37.063Z,97625.07
2023-05-25T23:02:05.245Z,97635.67
2023-05-25T23:04:36.046Z,97632.88
2023-05-25T23:07:04.319Z,97639.75
2023-05-25T23:09:32.117Z,97634.02
2023-05-25T23:12:00.014Z,97635.69
2023-05-25T23:14:29.928Z,97636.83
2023-05-25T23:16:57.713Z,97634.91
2023-05-25T23:19:27.332Z,97634.69
2023-05-25T23:21:57.870Z,97633.34
2023-05-25T23:24:25.797Z,97628.61
2023-05-25T23:26:53.550Z,97630.53
2023-05-25T23:29:21.313Z,97628.97
2023-05-25T23:31:49.119Z,97632.78
2023-05-25T23:34:16.857Z,97630.08
2023-05-25T23:36:45.414Z,97625.45
2023-05-25T23:39:13.255Z,97630.32
2023-05-25T23:41:41.158Z,97631.21
2023-05-25T23:44:09.074Z,97630.32
2023-05-25T23:46:37.076Z,97631.42
2023-05-25T23:49:04.820Z,97628.72
2023-05-25T23:51:32.811Z,97628.97
2023-05-25T23:54:00.775Z,97617.58
2023-05-25T23:56:28.715Z,97625.23
2023-05-25T23:58:56.661Z,97624.02
